deformed-offering

Current conditions - KSJC (San Jose International)


Coded METAR: 2017/06/23 12:53 KSJC 231253Z 14006KT 10SM FEW007 17/13 A2986 RMK AO2 SLP111 T01720133

Weather Report

Report issued: Fri 23rd Jun at 05:53 PDT

Wind: light breeze from the Southeast (140 degrees) at 6 knots (7 mph, 11 kph, Force 2)
Visibility: 10 statute miles
Cloud: a few clouds at 700 feet
Temperature: 63F / 17C
Dewpoint: 55F / 13C
Humidity: 77%
Pressure: 29.86 inches of mercury

Current conditions - KNUQ (Moffett NAS)


Coded METAR: 2017/06/23 12:56 KNUQ 231256Z 00000KT 10SM BKN009 17/16 A2987 RMK AO2 SLP117 T01720156

Weather Report

Report issued: Fri 23rd Jun at 05:56 PDT

Wind: calm 0 knots (0 mph, 0 kph, Force 0)
Visibility: 10 statute miles
Cloud: broken at 900 feet
Temperature: 63F / 17C
Dewpoint: 61F / 16C
Humidity: 94%
Pressure: 29.87 inches of mercury

Current conditions - KRHV (Reid-Hillview Airport - San Jose)


Coded METAR: 2017/06/23 04:47 KRHV 230447Z 00000KT 10SM SKC 23/14 A2981 RMK LAST

Weather Report

Report issued: Fri 23rd Jun at 21:47 PDT

Wind: calm 0 knots (0 mph, 0 kph, Force 0)
Visibility: 10 statute miles
Cloud: Sky clear
Temperature: 73F / 23C
Dewpoint: 57F / 14C
Humidity: 57%
Pressure: 29.81 inches of mercury

Current conditions - KPAO (Palo Alto Airport)


Coded METAR: 2017/06/23 03:47 KPAO 230347Z 33015KT 10SM SKC 20/17 A297 RMK LAST

Weather Report

Report issued: Fri 23rd Jun at 20:47 PDT

Wind: moderate breeze from North-Northwest (330 degrees) at 15 knots (17 mph, 28 kph, Force 4)
Visibility: 10 statute miles
Cloud: Sky clear
Temperature: 68F / 20C
Dewpoint: 63F / 17C
Humidity: 83%
Pressure: 29.7 inches of mercury

 

deformed-offering